Time;durP1;ratioP1;P1;durP2;ratioP2;P2;SDS_P1;SDS_P2;PMS_P1;PMS_P2;Temp;Humidity;BMP_temperature;BMP_pressure;BME280_temperature;BME280_humidity;BME280_pressure;Samples;Min_cycle;Max_cycle;Signal;HPM_P1;HPM_P2
2022/11/27 00:00:33;;;;;;;36.13;17.60;;;2.20;99.90;;;;;;4972736;28;20233;-74
2022/11/27 00:03:00;;;;;;;39.43;17.90;;;2.10;99.90;;;;;;4971978;28;20231;-75
2022/11/27 00:05:27;;;;;;;36.27;17.53;;;2.10;99.90;;;;;;4970023;28;20213;-73
2022/11/27 00:07:56;;;;;;;36.97;17.00;;;2.20;99.90;;;;;;4969574;28;20225;-75
2022/11/27 00:10:22;;;;;;;38.23;17.73;;;2.20;99.90;;;;;;4972210;28;20300;-75
2022/11/27 00:12:49;;;;;;;36.40;18.60;;;2.20;99.90;;;;;;4967005;28;20200;-74
2022/11/27 00:15:17;;;;;;;42.30;17.53;;;2.20;99.90;;;;;;4971190;28;20300;-75
2022/11/27 00:17:46;;;;;;;40.60;19.10;;;2.10;99.90;;;;;;4959737;28;20200;-75
2022/11/27 00:20:13;;;;;;;39.73;17.73;;;2.10;99.90;;;;;;4970830;28;20212;-72
2022/11/27 00:22:40;;;;;;;39.97;19.00;;;2.10;99.90;;;;;;4970236;28;20231;-73
2022/11/27 00:25:09;;;;;;;38.67;18.80;;;2.10;99.90;;;;;;4972360;28;20222;-74
2022/11/27 00:27:37;;;;;;;39.63;18.20;;;2.10;99.90;;;;;;4970552;28;20224;-74
2022/11/27 00:30:05;;;;;;;37.17;18.47;;;2.10;99.90;;;;;;4972124;28;20695;-74
2022/11/27 00:32:32;;;;;;;35.90;18.60;;;2.10;99.90;;;;;;4969251;28;20229;-72
2022/11/27 00:34:59;;;;;;;34.77;18.10;;;2.10;99.90;;;;;;4972049;28;20216;-75
2022/11/27 00:37:25;;;;;;;38.87;18.47;;;2.10;99.90;;;;;;4973060;28;20240;-75
2022/11/27 00:39:52;;;;;;;35.60;17.97;;;2.10;99.90;;;;;;4970502;28;20224;-74
2022/11/27 00:42:21;;;;;;;36.23;17.80;;;2.10;99.90;;;;;;4972365;28;20229;-73
2022/11/27 00:44:48;;;;;;;40.13;18.77;;;2.10;99.90;;;;;;4962781;28;20208;-73
2022/11/27 00:47:15;;;;;;;39.50;18.47;;;2.10;99.90;;;;;;4971175;28;20224;-73
2022/11/27 00:49:42;;;;;;;39.80;19.40;;;2.10;99.90;;;;;;4970274;28;20209;-73
2022/11/27 00:52:09;;;;;;;35.90;18.23;;;2.10;99.90;;;;;;4965582;28;20204;-73
2022/11/27 00:54:36;;;;;;;41.37;18.83;;;2.00;99.90;;;;;;4968572;28;20666;-73
2022/11/27 00:57:03;;;;;;;35.10;18.80;;;2.10;99.90;;;;;;4968075;28;20209;-72
2022/11/27 00:59:32;;;;;;;36.37;17.77;;;2.10;99.90;;;;;;4972226;28;20232;-73
2022/11/27 01:01:59;;;;;;;39.27;18.80;;;2.10;99.90;;;;;;4972888;28;20256;-74
2022/11/27 01:04:25;;;;;;;38.50;17.83;;;1.70;99.90;;;;;;4964780;28;20674;-73
2022/11/27 01:06:52;;;;;;;43.83;18.57;;;2.00;99.90;;;;;;4971119;28;20204;-73
2022/11/27 01:09:19;;;;;;;36.23;17.17;;;2.00;99.90;;;;;;4970790;28;20216;-69
2022/11/27 01:11:46;;;;;;;34.60;17.87;;;2.10;99.90;;;;;;4967538;28;20225;-69
2022/11/27 01:14:16;;;;;;;34.40;17.77;;;2.00;99.90;;;;;;4968533;28;20208;-69
2022/11/27 01:16:44;;;;;;;33.23;16.83;;;2.10;99.90;;;;;;4968504;28;20580;-68
2022/11/27 01:19:12;;;;;;;40.73;19.73;;;2.00;99.90;;;;;;4969972;28;20208;-69
2022/11/27 01:21:39;;;;;;;37.27;18.13;;;2.00;99.90;;;;;;4964002;28;20213;-69
2022/11/27 01:24:07;;;;;;;38.33;17.40;;;2.10;99.90;;;;;;4969062;28;20219;-69
2022/11/27 01:26:34;;;;;;;43.10;18.80;;;2.10;99.90;;;;;;4970190;28;20212;-70
2022/11/27 01:29:01;;;;;;;36.63;18.10;;;2.10;99.90;;;;;;4970383;28;20212;-69
2022/11/27 01:31:30;;;;;;;38.33;19.40;;;2.10;99.90;;;;;;4970441;28;20220;-68
2022/11/27 01:34:00;;;;;;;38.30;19.30;;;2.10;99.90;;;;;;4969575;28;20211;-69
2022/11/27 01:36:28;;;;;;;38.37;19.23;;;2.10;99.90;;;;;;4962987;28;20318;-69
2022/11/27 01:38:55;;;;;;;38.97;19.47;;;2.10;99.90;;;;;;4970173;28;20216;-68
2022/11/27 01:41:24;;;;;;;43.70;20.53;;;2.10;99.90;;;;;;4969861;28;20295;-69
2022/11/27 01:43:54;;;;;;;40.37;19.73;;;2.10;99.90;;;;;;4970042;28;20237;-69
2022/11/27 01:46:40;;;;;;;40.53;18.87;;;2.10;99.90;;;;;;4969663;28;20438;-69
2022/11/27 01:49:24;;;;;;;37.43;19.07;;;2.10;99.90;;;;;;4967953;28;20688;-69
2022/11/27 01:52:00;;;;;;;41.70;19.80;;;2.10;99.90;;;;;;4968482;28;20685;-68
2022/11/27 01:54:30;;;;;;;40.93;19.53;;;2.20;99.90;;;;;;4965835;28;20211;-69
2022/11/27 01:57:02;;;;;;;40.27;19.50;;;2.20;99.90;;;;;;4968324;28;20205;-69
2022/11/27 01:59:30;;;;;;;43.47;20.27;;;2.10;99.90;;;;;;4969076;28;20232;-69
2022/11/27 02:01:56;;;;;;;45.90;21.23;;;2.10;99.90;;;;;;4967414;28;20216;-68
2022/11/27 02:04:24;;;;;;;42.00;21.40;;;2.10;99.90;;;;;;4971976;28;20669;-69
2022/11/27 02:06:51;;;;;;;45.23;21.53;;;2.10;99.90;;;;;;4971263;28;20209;-69
2022/11/27 02:09:18;;;;;;;43.17;20.90;;;2.10;99.90;;;;;;4971834;28;20216;-67
2022/11/27 02:11:52;;;;;;;44.27;20.57;;;2.10;99.90;;;;;;4968641;28;20568;-69
2022/11/27 02:14:25;;;;;;;44.60;21.90;;;2.10;99.90;;;;;;4959896;28;20209;-70
2022/11/27 02:17:01;;;;;;;41.63;19.80;;;2.10;99.90;;;;;;4966007;28;20205;-68
2022/11/27 02:19:42;;;;;;;47.93;21.37;;;2.10;99.90;;;;;;4970275;28;20205;-70
2022/11/27 02:22:24;;;;;;;40.60;21.40;;;2.10;99.90;;;;;;4967750;28;20583;-69
2022/11/27 02:25:02;;;;;;;45.93;21.70;;;2.20;99.90;;;;;;4972890;28;20287;-70
2022/11/27 02:28:02;;;;;;;50.00;24.33;;;2.20;99.90;;;;;;4970977;28;20208;-69
2022/11/27 02:30:36;;;;;;;41.83;21.47;;;2.20;99.90;;;;;;4966859;28;20196;-67
2022/11/27 02:33:08;;;;;;;44.33;22.47;;;2.20;99.90;;;;;;4972200;28;20214;-69
2022/11/27 02:35:39;;;;;;;44.20;22.83;;;2.20;99.90;;;;;;4971134;28;20696;-69
2022/11/27 02:38:10;;;;;;;44.33;22.43;;;2.20;99.90;;;;;;4972503;28;20262;-70
2022/11/27 02:40:42;;;;;;;42.90;21.67;;;2.20;99.90;;;;;;4971645;28;20271;-70
2022/11/27 02:43:12;;;;;;;43.43;22.73;;;2.20;99.90;;;;;;4959695;28;20682;-70
2022/11/27 02:45:43;;;;;;;46.83;23.30;;;2.20;99.90;;;;;;4969373;28;20204;-69
2022/11/27 02:48:13;;;;;;;44.53;23.30;;;2.20;99.90;;;;;;4966457;28;20209;-70
2022/11/27 02:50:43;;;;;;;43.73;23.03;;;2.20;99.90;;;;;;4970044;28;20605;-70
2022/11/27 02:53:14;;;;;;;45.17;22.80;;;2.20;99.90;;;;;;4970563;28;20208;-69
2022/11/27 02:55:43;;;;;;;47.30;24.67;;;2.20;99.90;;;;;;4963798;28;20584;-71
2022/11/27 02:58:15;;;;;;;47.07;23.33;;;2.20;99.90;;;;;;4971686;28;20597;-69
2022/11/27 03:00:46;;;;;;;50.80;25.80;;;2.20;99.90;;;;;;4971798;28;20326;-69
2022/11/27 03:03:17;;;;;;;49.57;24.70;;;2.20;99.90;;;;;;4971700;28;20225;-73
2022/11/27 03:05:47;;;;;;;49.90;25.43;;;2.20;99.90;;;;;;4967505;28;20205;-70
2022/11/27 03:08:19;;;;;;;51.63;25.83;;;2.20;99.90;;;;;;4972416;28;20212;-70
2022/11/27 03:10:50;;;;;;;54.50;25.30;;;2.20;99.90;;;;;;4969678;28;20205;-73
2022/11/27 03:13:17;;;;;;;51.87;25.07;;;2.10;99.90;;;;;;4971814;28;20219;-71
2022/11/27 03:15:55;;;;;;;52.50;24.63;;;2.20;99.90;;;;;;4970496;28;20219;-72
2022/11/27 03:18:28;;;;;;;48.33;25.57;;;2.10;99.90;;;;;;4972190;28;20551;-72
2022/11/27 03:21:06;;;;;;;53.80;25.60;;;2.10;99.90;;;;;;4969018;28;20204;-71
2022/11/27 03:23:33;;;;;;;52.10;26.17;;;2.10;99.90;;;;;;4962934;28;20232;-69
2022/11/27 03:26:00;;;;;;;50.20;24.50;;;2.10;99.90;;;;;;4970864;28;20223;-70
2022/11/27 03:28:28;;;;;;;59.23;27.73;;;2.10;99.90;;;;;;4970562;28;20692;-69
2022/11/27 03:30:56;;;;;;;53.13;26.07;;;2.20;99.90;;;;;;4970219;28;20243;-71
2022/11/27 03:33:23;;;;;;;42.87;22.80;;;2.20;99.90;;;;;;4971696;28;20216;-70
2022/11/27 03:35:50;;;;;;;53.73;25.30;;;2.10;99.90;;;;;;4969456;28;20216;-69
2022/11/27 03:38:17;;;;;;;50.07;25.10;;;2.20;99.90;;;;;;4971209;28;20223;-71
2022/11/27 03:40:52;;;;;;;50.43;24.27;;;2.10;99.90;;;;;;4968727;28;20209;-70
2022/11/27 03:43:23;;;;;;;46.57;24.47;;;2.10;99.90;;;;;;4970167;28;20228;-69
2022/11/27 03:45:58;;;;;;;52.73;24.20;;;2.10;99.90;;;;;;4970020;28;20676;-72
2022/11/27 03:48:34;;;;;;;54.80;25.03;;;2.10;99.90;;;;;;4970943;28;20208;-71
2022/11/27 03:51:11;;;;;;;50.27;24.97;;;2.10;99.90;;;;;;4969146;28;20208;-72
2022/11/27 03:53:51;;;;;;;49.27;24.57;;;2.10;99.90;;;;;;4970915;28;20708;-71
2022/11/27 03:56:26;;;;;;;52.90;23.10;;;2.10;99.90;;;;;;4967613;28;20206;-72
2022/11/27 03:59:02;;;;;;;50.73;24.73;;;2.10;99.90;;;;;;4969854;28;20200;-71
2022/11/27 04:01:29;;;;;;;47.00;22.60;;;2.10;99.90;;;;;;4967518;28;20209;-70
2022/11/27 04:03:57;;;;;;;53.30;24.23;;;2.10;99.90;;;;;;4970295;28;20462;-71
2022/11/27 04:06:24;;;;;;;51.53;23.13;;;2.10;99.90;;;;;;4969409;28;20223;-70
2022/11/27 04:08:51;;;;;;;48.17;22.93;;;2.10;99.90;;;;;;4969851;28;20211;-71
2022/11/27 04:11:18;;;;;;;49.80;24.07;;;2.10;99.90;;;;;;4971062;28;20213;-71
2022/11/27 04:13:45;;;;;;;50.80;23.73;;;2.10;99.90;;;;;;4963990;28;20192;-69
2022/11/27 04:16:12;;;;;;;52.47;24.70;;;2.10;99.90;;;;;;4970812;28;20256;-70
2022/11/27 04:18:38;;;;;;;53.73;24.47;;;2.20;99.90;;;;;;4969605;28;20216;-70
2022/11/27 04:21:07;;;;;;;54.73;25.00;;;2.30;99.90;;;;;;4970128;28;20679;-70
2022/11/27 04:23:33;;;;;;;53.97;24.87;;;2.20;99.90;;;;;;4968218;28;20227;-70
2022/11/27 04:26:00;;;;;;;54.60;25.87;;;2.20;99.90;;;;;;4970389;28;20260;-70
2022/11/27 04:28:27;;;;;;;54.07;24.00;;;2.20;99.90;;;;;;4967773;28;20575;-70
2022/11/27 04:30:54;;;;;;;57.70;25.87;;;2.20;99.90;;;;;;4968701;28;20682;-70
2022/11/27 04:33:21;;;;;;;52.57;24.87;;;2.20;99.90;;;;;;4969480;28;20255;-72
2022/11/27 04:35:48;;;;;;;52.80;25.53;;;2.20;99.90;;;;;;4969597;28;20240;-70
2022/11/27 04:38:16;;;;;;;49.03;23.27;;;2.20;99.90;;;;;;4969292;28;20586;-71
2022/11/27 04:40:43;;;;;;;50.77;24.23;;;2.20;99.90;;;;;;4970322;28;20227;-70
2022/11/27 04:43:10;;;;;;;50.97;24.60;;;2.20;99.90;;;;;;4969107;28;20230;-71
2022/11/27 04:45:37;;;;;;;55.10;22.73;;;2.20;99.90;;;;;;4964003;28;20217;-70
2022/11/27 04:48:05;;;;;;;47.83;23.57;;;2.20;99.90;;;;;;4968406;28;20213;-72
2022/11/27 04:50:32;;;;;;;52.60;22.83;;;2.20;99.90;;;;;;4969852;28;20227;-70
2022/11/27 04:52:59;;;;;;;48.13;23.70;;;2.20;99.90;;;;;;4969205;28;20212;-70
2022/11/27 04:55:27;;;;;;;43.90;22.37;;;2.20;99.90;;;;;;4969953;28;20213;-71
2022/11/27 04:57:54;;;;;;;47.80;22.90;;;2.30;99.90;;;;;;4969049;28;20224;-70
2022/11/27 05:00:21;;;;;;;51.60;23.13;;;2.30;99.90;;;;;;4969231;28;20232;-71
2022/11/27 05:02:48;;;;;;;47.20;22.57;;;2.30;99.90;;;;;;4964540;28;20672;-69
2022/11/27 05:05:16;;;;;;;50.73;23.97;;;2.30;99.90;;;;;;4969664;28;20241;-71
2022/11/27 05:07:42;;;;;;;51.30;25.17;;;2.30;99.90;;;;;;4968413;28;20263;-71
2022/11/27 05:10:10;;;;;;;51.83;24.20;;;2.20;99.90;;;;;;4967726;28;20228;-70
2022/11/27 05:12:38;;;;;;;45.73;24.00;;;2.30;99.90;;;;;;4968709;28;20215;-71
2022/11/27 05:15:06;;;;;;;51.47;24.00;;;2.30;99.90;;;;;;4969863;28;20208;-69
2022/11/27 05:17:32;;;;;;;53.73;26.07;;;2.30;99.90;;;;;;4966809;28;20839;-70
2022/11/27 05:19:59;;;;;;;54.43;25.37;;;2.30;99.90;;;;;;4967087;28;20329;-71
2022/11/27 05:22:26;;;;;;;47.53;24.40;;;2.30;99.90;;;;;;4970091;28;20721;-70
2022/11/27 05:24:53;;;;;;;56.07;25.03;;;2.30;99.90;;;;;;4968412;28;20221;-70
2022/11/27 05:27:19;;;;;;;48.17;24.37;;;2.30;99.90;;;;;;4969031;28;20204;-71
2022/11/27 05:29:47;;;;;;;50.43;25.27;;;2.30;99.90;;;;;;4969417;28;20248;-69
2022/11/27 05:32:14;;;;;;;58.40;25.30;;;2.30;99.90;;;;;;4969665;28;20213;-71
2022/11/27 05:34:41;;;;;;;51.07;24.67;;;2.30;99.90;;;;;;4969082;28;20205;-71
2022/11/27 05:37:08;;;;;;;52.60;26.13;;;2.30;99.90;;;;;;4966896;28;20247;-70
2022/11/27 05:39:35;;;;;;;49.73;24.70;;;2.40;99.90;;;;;;4971509;28;20227;-70
2022/11/27 05:42:01;;;;;;;52.43;25.37;;;2.40;99.90;;;;;;4971140;28;20220;-71
2022/11/27 05:44:29;;;;;;;51.83;26.73;;;2.40;99.90;;;;;;4973211;28;20233;-72
2022/11/27 05:46:57;;;;;;;58.20;28.53;;;2.40;99.90;;;;;;4972847;28;20618;-71
2022/11/27 05:49:24;;;;;;;54.13;25.60;;;2.40;99.90;;;;;;4972869;28;20220;-71
2022/11/27 05:51:50;;;;;;;58.20;26.77;;;2.40;99.90;;;;;;4972799;28;20567;-71
2022/11/27 05:54:17;;;;;;;65.27;27.13;;;2.40;99.90;;;;;;4969898;28;20592;-70
2022/11/27 05:56:44;;;;;;;60.80;27.33;;;2.40;99.90;;;;;;4971886;28;20212;-72
2022/11/27 05:59:11;;;;;;;63.47;28.53;;;2.40;99.90;;;;;;4971269;28;20208;-71
2022/11/27 06:01:38;;;;;;;71.67;30.07;;;2.40;99.90;;;;;;4971256;28;20736;-70
2022/11/27 06:04:06;;;;;;;67.57;29.77;;;2.40;99.90;;;;;;4973478;28;20221;-70
2022/11/27 06:06:33;;;;;;;62.97;28.40;;;2.50;99.90;;;;;;4965967;28;20662;-71
2022/11/27 06:09:00;;;;;;;70.70;29.77;;;2.50;99.90;;;;;;4974153;28;20224;-69
2022/11/27 06:11:28;;;;;;;72.43;30.03;;;2.50;99.90;;;;;;4983556;28;20221;-72
2022/11/27 06:13:54;;;;;;;74.27;31.60;;;2.50;99.90;;;;;;4980036;28;20220;-69
2022/11/27 06:16:23;;;;;;;75.03;31.07;;;2.50;99.90;;;;;;4971674;28;20221;-69
2022/11/27 06:18:51;;;;;;;78.43;30.07;;;2.50;99.90;;;;;;4972134;28;20559;-70
2022/11/27 06:21:21;;;;;;;67.53;28.13;;;2.50;99.90;;;;;;4974435;28;20216;-69
2022/11/27 06:23:48;;;;;;;70.90;30.93;;;2.50;99.90;;;;;;4985938;28;20662;-70
2022/11/27 06:26:17;;;;;;;69.77;29.07;;;2.60;99.90;;;;;;4990086;28;20250;-72
2022/11/27 06:28:45;;;;;;;69.83;29.67;;;2.60;99.90;;;;;;4986948;28;20228;-69
2022/11/27 06:31:14;;;;;;;82.87;30.97;;;2.60;99.90;;;;;;4972869;28;20218;-71
2022/11/27 06:33:41;;;;;;;70.87;31.63;;;2.60;99.90;;;;;;4987671;28;20200;-71
2022/11/27 06:36:08;;;;;;;68.53;29.17;;;3.20;99.90;;;;;;4987568;28;20232;-70
2022/11/27 06:38:38;;;;;;;65.77;29.50;;;2.60;99.90;;;;;;4990687;28;20611;-70
2022/11/27 06:41:07;;;;;;;73.57;29.93;;;2.60;99.90;;;;;;4985009;28;20209;-68
2022/11/27 06:43:34;;;;;;;70.17;30.37;;;2.60;99.90;;;;;;4976435;28;20659;-70
2022/11/27 06:46:02;;;;;;;66.67;29.13;;;2.60;99.90;;;;;;4978781;28;20227;-73
2022/11/27 06:48:29;;;;;;;72.93;29.60;;;2.60;99.90;;;;;;4974074;28;20300;-71
2022/11/27 06:51:00;;;;;;;74.03;30.13;;;2.60;99.90;;;;;;4983297;28;20215;-69
2022/11/27 06:53:27;;;;;;;74.23;30.20;;;2.60;99.90;;;;;;4984136;28;20260;-72
2022/11/27 06:55:55;;;;;;;63.57;29.33;;;2.60;99.90;;;;;;4980065;28;20227;-67
2022/11/27 06:58:22;;;;;;;64.17;29.00;;;2.60;99.90;;;;;;4980407;28;20208;-70
2022/11/27 07:00:49;;;;;;;65.53;29.20;;;2.70;99.90;;;;;;4978336;28;20239;-69
2022/11/27 07:03:15;;;;;;;69.77;29.20;;;2.70;99.90;;;;;;4972984;28;20213;-69
2022/11/27 07:05:42;;;;;;;67.97;29.20;;;2.60;99.90;;;;;;4978124;28;20319;-70
2022/11/27 07:08:09;;;;;;;70.33;29.30;;;2.70;99.90;;;;;;4980649;28;20220;-70
2022/11/27 07:10:36;;;;;;;74.40;29.80;;;2.70;99.90;;;;;;4976422;28;20215;-70
2022/11/27 07:13:04;;;;;;;73.87;29.13;;;2.70;99.90;;;;;;4976771;28;20220;-69
2022/11/27 07:15:32;;;;;;;73.10;29.93;;;2.70;99.90;;;;;;4980440;28;20209;-71
2022/11/27 07:17:59;;;;;;;71.23;29.27;;;2.70;99.90;;;;;;4980488;28;20559;-71
2022/11/27 07:20:26;;;;;;;75.67;28.40;;;2.80;99.90;;;;;;4969859;28;20642;-70
2022/11/27 07:22:52;;;;;;;75.27;30.63;;;2.80;99.90;;;;;;4973264;28;20569;-70
2022/11/27 07:25:19;;;;;;;74.70;29.90;;;2.80;99.90;;;;;;4974086;28;20240;-69
2022/11/27 07:27:46;;;;;;;78.07;31.40;;;2.90;99.90;;;;;;4975445;28;20231;-73
2022/11/27 07:30:15;;;;;;;71.43;29.63;;;2.90;99.90;;;;;;4970264;28;20567;-71
2022/11/27 07:32:42;;;;;;;73.43;29.80;;;3.00;99.90;;;;;;4974768;28;20598;-71
2022/11/27 07:35:09;;;;;;;71.77;30.07;;;3.00;99.90;;;;;;4973726;28;20247;-70
2022/11/27 07:37:36;;;;;;;71.10;30.47;;;3.00;99.90;;;;;;4976092;28;20280;-70
2022/11/27 07:40:03;;;;;;;60.43;27.97;;;3.10;99.90;;;;;;4977459;28;20215;-70
2022/11/27 07:42:30;;;;;;;61.63;27.97;;;3.10;99.90;;;;;;4975572;28;20204;-71
2022/11/27 07:44:57;;;;;;;58.70;28.70;;;3.20;99.90;;;;;;4977589;28;20236;-70
2022/11/27 07:47:25;;;;;;;65.00;29.27;;;3.20;99.90;;;;;;4976382;28;20208;-71
2022/11/27 07:49:53;;;;;;;61.67;28.40;;;3.30;99.90;;;;;;4976744;28;20208;-68
2022/11/27 07:52:20;;;;;;;62.77;28.73;;;3.30;99.90;;;;;;4976711;28;20219;-68
2022/11/27 07:54:47;;;;;;;58.33;27.27;;;3.40;99.90;;;;;;4977243;28;20672;-70
2022/11/27 07:57:14;;;;;;;56.77;26.83;;;3.40;99.90;;;;;;4972363;28;20205;-71
2022/11/27 07:59:41;;;;;;;60.43;28.17;;;3.40;99.90;;;;;;4966752;28;20228;-69
2022/11/27 08:02:11;;;;;;;62.70;27.60;;;3.40;99.90;;;;;;4970305;28;20715;-69
2022/11/27 08:04:40;;;;;;;58.80;25.97;;;3.30;99.90;;;;;;4966942;28;20217;-70
2022/11/27 08:07:06;;;;;;;62.83;28.60;;;3.40;99.90;;;;;;4974565;28;20209;-70
2022/11/27 08:09:33;;;;;;;61.67;27.53;;;3.30;99.90;;;;;;4973166;28;20213;-69
2022/11/27 08:12:00;;;;;;;58.67;27.93;;;3.40;99.90;;;;;;4969911;28;20212;-70
2022/11/27 08:14:27;;;;;;;67.33;29.60;;;3.40;99.90;;;;;;4962939;28;20204;-70
2022/11/27 08:16:54;;;;;;;61.97;28.77;;;3.40;99.90;;;;;;4968713;28;20208;-72
2022/11/27 08:19:21;;;;;;;60.50;28.63;;;3.40;99.90;;;;;;4968205;28;20577;-70
2022/11/27 08:21:49;;;;;;;59.50;28.20;;;3.40;99.90;;;;;;4964748;28;20223;-73
2022/11/27 08:24:16;;;;;;;67.30;29.13;;;3.40;99.90;;;;;;4966381;28;20219;-70
2022/11/27 08:26:42;;;;;;;58.00;27.60;;;3.40;99.90;;;;;;4966875;28;20839;-69
2022/11/27 08:29:11;;;;;;;63.63;29.23;;;3.40;99.90;;;;;;4975338;28;20204;-69
2022/11/27 08:31:38;;;;;;;59.87;27.90;;;3.50;99.90;;;;;;4970274;28;20220;-66
2022/11/27 08:34:04;;;;;;;60.67;28.63;;;3.50;99.90;;;;;;4969313;28;20231;-70
2022/11/27 08:36:31;;;;;;;59.77;28.63;;;3.50;99.90;;;;;;4966698;28;20240;-68
2022/11/27 08:39:00;;;;;;;59.33;28.33;;;3.50;99.90;;;;;;4969901;28;20220;-71
2022/11/27 08:41:26;;;;;;;58.33;28.23;;;3.50;99.90;;;;;;4963139;28;20205;-72
2022/11/27 08:43:53;;;;;;;66.10;29.93;;;3.50;99.90;;;;;;4961355;28;20224;-70
2022/11/27 08:46:20;;;;;;;59.43;29.70;;;3.50;99.90;;;;;;4967254;28;21406;-69
2022/11/27 08:48:47;;;;;;;65.67;28.80;;;3.50;99.90;;;;;;4963257;28;20216;-70
2022/11/27 08:51:15;;;;;;;57.90;26.53;;;3.60;99.90;;;;;;4969351;28;20574;-68
2022/11/27 08:53:44;;;;;;;64.67;28.53;;;3.60;99.90;;;;;;4968771;28;20208;-72
2022/11/27 08:56:15;;;;;;;64.03;29.37;;;3.60;99.90;;;;;;4967957;28;20228;-71
2022/11/27 08:58:42;;;;;;;63.80;29.67;;;3.60;99.90;;;;;;4964551;28;20205;-68
2022/11/27 09:01:11;;;;;;;59.87;29.33;;;3.60;99.90;;;;;;4964895;28;20236;-66
2022/11/27 09:03:38;;;;;;;64.37;29.67;;;3.60;99.90;;;;;;4963683;28;20211;-70
2022/11/27 09:06:10;;;;;;;61.03;28.23;;;3.60;99.90;;;;;;4964474;28;22301;-70
2022/11/27 09:08:38;;;;;;;58.03;29.13;;;3.60;99.90;;;;;;4966917;28;20209;-70
2022/11/27 09:11:05;;;;;;;66.97;30.43;;;3.60;99.90;;;;;;4968628;28;20271;-69
2022/11/27 09:13:35;;;;;;;59.40;28.37;;;3.70;99.90;;;;;;4968527;28;20204;-69
2022/11/27 09:16:02;;;;;;;63.53;29.00;;;3.70;99.90;;;;;;4972816;28;20218;-68
2022/11/27 09:18:29;;;;;;;62.33;28.33;;;3.70;99.90;;;;;;4966686;28;20248;-69
2022/11/27 09:20:57;;;;;;;56.67;28.03;;;3.80;99.90;;;;;;4970283;28;20209;-68
2022/11/27 09:23:25;;;;;;;60.87;30.33;;;3.80;99.90;;;;;;4973171;28;20247;-69
2022/11/27 09:25:51;;;;;;;65.47;30.47;;;3.80;99.90;;;;;;4974331;28;20228;-68
2022/11/27 09:28:18;;;;;;;58.17;28.57;;;3.80;99.90;;;;;;4975611;28;20220;-68
2022/11/27 09:30:46;;;;;;;58.97;26.90;;;3.90;99.90;;;;;;4973037;28;20209;-68
2022/11/27 09:33:13;;;;;;;58.73;28.17;;;3.90;99.90;;;;;;4975461;28;20231;-69
2022/11/27 09:35:40;;;;;;;47.83;25.63;;;4.00;99.90;;;;;;4973810;28;20207;-71
2022/11/27 09:38:07;;;;;;;58.88;27.58;;;4.00;99.90;;;;;;4970073;28;20454;-69
2022/11/27 09:40:34;;;;;;;52.37;26.23;;;3.90;99.90;;;;;;4974489;28;20221;-69
2022/11/27 09:43:08;;;;;;;51.07;27.67;;;3.90;99.90;;;;;;4972021;28;20711;-72
2022/11/27 09:45:40;;;;;;;49.83;26.57;;;4.00;99.90;;;;;;4968584;28;20705;-70
2022/11/27 09:48:14;;;;;;;52.77;27.13;;;3.90;99.90;;;;;;4971771;28;20209;-69
2022/11/27 09:50:49;;;;;;;51.30;27.13;;;4.00;99.90;;;;;;4971912;28;20288;-69
2022/11/27 09:53:24;;;;;;;51.77;27.23;;;4.00;99.90;;;;;;4971563;28;20567;-70
2022/11/27 09:55:54;;;;;;;50.73;26.50;;;4.10;99.90;;;;;;4970917;28;20937;-70
2022/11/27 09:58:31;;;;;;;55.77;28.23;;;4.10;99.90;;;;;;4973015;28;20204;-70
2022/11/27 10:00:58;;;;;;;56.97;27.93;;;4.10;99.90;;;;;;4967357;28;20227;-68
2022/11/27 10:03:28;;;;;;;48.00;25.63;;;4.20;99.90;;;;;;4973564;28;20208;-69
2022/11/27 10:06:05;;;;;;;57.33;27.43;;;4.20;99.90;;;;;;4973461;28;20591;-68
2022/11/27 10:08:43;;;;;;;52.27;29.00;;;4.30;99.90;;;;;;4973268;28;20213;-68
2022/11/27 10:11:21;;;;;;;53.67;27.13;;;4.30;99.90;;;;;;4969359;28;20212;-70
2022/11/27 10:14:03;;;;;;;50.80;27.40;;;4.30;99.90;;;;;;4972397;28;20215;-70
2022/11/27 10:16:37;;;;;;;55.80;27.70;;;4.30;99.90;;;;;;4972324;28;20572;-69
2022/11/27 10:19:16;;;;;;;56.03;28.33;;;4.40;99.90;;;;;;4973086;28;20201;-70
2022/11/27 10:21:49;;;;;;;57.90;31.63;;;4.40;99.90;;;;;;4972542;28;20664;-69
2022/11/27 10:24:23;;;;;;;57.90;30.37;;;4.40;99.90;;;;;;4972014;28;20252;-70
2022/11/27 10:26:54;;;;;;;58.00;28.30;;;4.50;99.90;;;;;;4974188;28;20347;-67
2022/11/27 10:29:34;;;;;;;55.33;26.93;;;4.40;99.90;;;;;;4972052;28;20197;-65
2022/11/27 10:32:06;;;;;;;56.80;28.37;;;4.50;99.90;;;;;;4974179;28;20205;-65
2022/11/27 10:34:40;;;;;;;59.33;30.27;;;4.50;99.90;;;;;;4970350;28;20552;-70
2022/11/27 10:37:13;;;;;;;52.83;27.13;;;4.50;99.90;;;;;;4972909;28;20244;-72
2022/11/27 10:39:46;;;;;;;57.47;30.03;;;4.50;99.90;;;;;;4968533;28;20209;-71
2022/11/27 10:42:19;;;;;;;55.33;29.13;;;4.50;99.90;;;;;;4971571;28;21483;-70
2022/11/27 10:44:50;;;;;;;51.53;28.03;;;4.50;99.90;;;;;;4972456;28;20223;-70
2022/11/27 10:47:20;;;;;;;55.23;26.57;;;4.60;99.90;;;;;;4966873;28;20217;-70
2022/11/27 10:49:49;;;;;;;52.87;28.00;;;4.70;99.90;;;;;;4968777;28;20212;-71
2022/11/27 10:52:18;;;;;;;49.87;26.10;;;4.60;99.90;;;;;;4971191;28;20291;-73
2022/11/27 10:54:54;;;;;;;49.07;25.00;;;4.70;99.90;;;;;;4972945;28;20492;-72
2022/11/27 10:57:47;;;;;;;50.47;27.20;;;4.70;99.90;;;;;;4972844;28;20212;-73
2022/11/27 11:00:20;;;;;;;45.53;25.90;;;4.70;99.90;;;;;;4972843;28;20681;-71
2022/11/27 11:02:47;;;;;;;49.80;25.93;;;4.70;99.90;;;;;;4965893;28;20201;-71
2022/11/27 11:05:23;;;;;;;47.30;26.27;;;4.70;99.90;;;;;;4971448;28;20231;-72
2022/11/27 11:07:59;;;;;;;44.37;25.03;;;4.70;99.90;;;;;;4972755;28;20235;-72
2022/11/27 11:10:31;;;;;;;49.43;25.63;;;4.70;99.90;;;;;;4973878;28;20197;-70
2022/11/27 11:13:09;;;;;;;45.47;26.37;;;4.70;99.90;;;;;;4969372;28;20700;-70
2022/11/27 11:15:52;;;;;;;49.13;26.30;;;4.80;99.90;;;;;;4975428;28;20200;-69
2022/11/27 11:18:19;;;;;;;47.57;26.23;;;4.80;99.90;;;;;;4977488;28;20225;-70
2022/11/27 11:20:50;;;;;;;45.33;26.07;;;4.80;99.90;;;;;;4980186;28;20292;-70
2022/11/27 11:23:35;;;;;;;54.73;27.40;;;4.80;99.90;;;;;;4981342;28;20218;-70
2022/11/27 11:26:07;;;;;;;48.50;25.50;;;4.90;99.90;;;;;;4979753;28;20220;-71
2022/11/27 11:28:40;;;;;;;45.30;24.13;;;4.90;99.90;;;;;;4981869;28;20209;-69
2022/11/27 11:31:09;;;;;;;41.63;24.53;;;5.00;99.90;;;;;;4982619;28;20559;-69
2022/11/27 11:33:47;;;;;;;47.57;24.43;;;5.00;99.90;;;;;;4983148;28;20208;-71
2022/11/27 11:36:16;;;;;;;39.73;22.77;;;5.00;99.90;;;;;;4977589;28;20228;-71
2022/11/27 11:38:46;;;;;;;39.73;23.20;;;5.00;99.90;;;;;;4982605;28;20582;-70
2022/11/27 11:41:16;;;;;;;47.70;22.83;;;5.10;99.90;;;;;;4980720;28;20252;-70
2022/11/27 11:43:55;;;;;;;42.43;24.10;;;5.10;99.90;;;;;;4979903;28;20266;-70
2022/11/27 11:46:24;;;;;;;41.37;23.17;;;5.00;99.90;;;;;;4982075;28;20228;-69
2022/11/27 11:49:00;;;;;;;39.17;23.77;;;5.00;99.90;;;;;;4982443;28;20223;-70
2022/11/27 11:51:57;;;;;;;40.50;23.30;;;5.10;99.90;;;;;;4970074;28;20207;-70
2022/11/27 11:54:51;;;;;;;41.80;23.87;;;5.00;99.90;;;;;;4974987;28;20191;-68
2022/11/27 11:57:49;;;;;;;40.50;23.80;;;5.10;99.90;;;;;;4974607;28;20282;-70
2022/11/27 12:00:21;;;;;;;43.90;24.03;;;5.00;99.90;;;;;;4971669;28;20224;-74
2022/11/27 12:03:02;;;;;;;41.40;23.53;;;5.10;99.90;;;;;;4967851;28;20209;-70
2022/11/27 12:05:39;;;;;;;40.17;23.50;;;5.10;99.90;;;;;;4968321;28;20846;-69
2022/11/27 12:08:28;;;;;;;45.27;23.57;;;5.10;99.90;;;;;;4967634;28;20243;-70
2022/11/27 12:11:08;;;;;;;46.83;25.03;;;5.00;99.90;;;;;;4966239;28;20236;-70
2022/11/27 12:13:47;;;;;;;41.73;23.30;;;5.10;99.90;;;;;;4969609;28;20228;-74
2022/11/27 12:16:23;;;;;;;38.83;23.50;;;5.00;99.90;;;;;;4967018;28;20204;-68
2022/11/27 12:19:04;;;;;;;39.43;22.27;;;5.10;99.90;;;;;;4967288;28;20204;-72
2022/11/27 12:21:40;;;;;;;40.77;23.03;;;4.50;99.90;;;;;;4963444;28;20212;-71
2022/11/27 12:24:22;;;;;;;39.03;22.47;;;5.00;99.90;;;;;;4967335;28;20208;-70
2022/11/27 12:27:02;;;;;;;42.53;23.10;;;5.00;99.90;;;;;;4961661;28;20231;-72
2022/11/27 12:29:58;;;;;;;39.53;22.53;;;5.00;99.90;;;;;;4956927;28;20208;-72
2022/11/27 12:32:43;;;;;;;38.40;21.53;;;5.10;99.90;;;;;;4961661;28;20322;-70
2022/11/27 12:35:30;;;;;;;39.77;22.50;;;5.10;99.90;;;;;;4963061;28;20201;-71
2022/11/27 12:38:08;;;;;;;36.17;21.07;;;5.10;99.90;;;;;;4964718;28;20248;-71
2022/11/27 12:40:56;;;;;;;36.77;22.57;;;5.10;99.90;;;;;;4964175;28;20208;-71
2022/11/27 12:43:25;;;;;;;38.50;21.57;;;5.10;99.90;;;;;;4966376;28;20209;-70
2022/11/27 12:45:59;;;;;;;36.83;22.00;;;5.20;99.90;;;;;;4963424;28;20225;-70
2022/11/27 12:48:31;;;;;;;38.27;22.83;;;5.10;99.90;;;;;;4967634;28;20216;-71
2022/11/27 12:51:01;;;;;;;38.00;21.23;;;5.10;99.90;;;;;;4964787;28;20228;-72